Time;durP1;ratioP1;P1;durP2;ratioP2;P2;SDS_P1;SDS_P2;PMS_P1;PMS_P2;Temp;Humidity;BMP_temperature;BMP_pressure;BME280_temperature;BME280_humidity;BME280_pressure;Samples;Min_cycle;Max_cycle;Signal;HPM_P1;HPM_P2
2022/08/23 00:01:57;;;;;;;3.47;2.33;;;17.60;99.90;;;;;;5073827;28;20029;-61
2022/08/23 00:04:29;;;;;;;4.65;2.10;;;17.60;99.90;;;;;;5108560;28;20054;-59
2022/08/23 00:06:55;;;;;;;2.42;2.10;;;17.60;99.90;;;;;;5073725;28;20051;-62
2022/08/23 00:09:24;;;;;;;2.55;2.08;;;17.60;99.90;;;;;;5109763;28;20034;-61
2022/08/23 00:12:09;;;;;;;2.70;1.80;;;17.60;99.90;;;;;;5089418;28;20371;-61
2022/08/23 00:14:37;;;;;;;2.10;1.90;;;17.70;99.90;;;;;;5109597;28;20033;-61
2022/08/23 00:17:04;;;;;;;4.25;2.35;;;17.70;99.90;;;;;;5091250;28;20085;-61
2022/08/23 00:19:30;;;;;;;2.47;1.92;;;17.60;99.90;;;;;;5108139;28;20127;-61
2022/08/23 00:21:56;;;;;;;3.20;1.77;;;17.60;99.90;;;;;;5090673;28;20279;-52
2022/08/23 00:24:23;;;;;;;3.15;1.70;;;17.60;99.90;;;;;;5103244;28;20024;-54
2022/08/23 00:26:54;;;;;;;3.90;1.80;;;17.60;99.90;;;;;;5088984;28;20084;-54
2022/08/23 00:29:22;;;;;;;3.08;1.50;;;17.60;99.90;;;;;;5109392;28;20061;-51
2022/08/23 00:31:48;;;;;;;2.13;1.77;;;17.60;99.90;;;;;;5088400;28;20043;-55
2022/08/23 00:34:14;;;;;;;3.83;2.05;;;17.60;99.90;;;;;;5097768;28;20151;-57
2022/08/23 00:36:40;;;;;;;2.70;1.90;;;17.60;99.90;;;;;;5106574;28;20088;-57
2022/08/23 00:39:06;;;;;;;3.22;1.92;;;17.60;99.90;;;;;;5109411;28;20026;-57
2022/08/23 00:41:33;;;;;;;2.28;1.90;;;17.60;99.90;;;;;;5089151;28;20510;-56
2022/08/23 00:47:56;;;;;;;6.68;2.30;;;17.60;99.90;;;;;;5107611;28;20057;-58
2022/08/23 00:49:58;;;;;;;2.33;1.70;;;17.60;99.90;;;;;;5103109;28;20031;-57
2022/08/23 00:52:37;;;;;;;4.78;2.38;;;17.60;99.90;;;;;;5078473;28;20514;-56
2022/08/23 00:55:03;;;;;;;2.83;2.10;;;17.50;99.90;;;;;;5109078;28;20157;-58
2022/08/23 00:57:31;;;;;;;3.33;2.00;;;17.50;99.90;;;;;;5092380;28;20027;-56
2022/08/23 00:59:56;;;;;;;2.17;1.73;;;17.50;99.90;;;;;;5107991;28;20024;-57
2022/08/23 01:02:22;;;;;;;4.70;2.10;;;17.50;99.90;;;;;;5092818;28;20049;-55
2022/08/23 01:04:57;;;;;;;2.95;2.22;;;17.50;99.90;;;;;;5109102;28;20500;-58
2022/08/23 01:07:40;;;;;;;4.65;2.20;;;17.50;99.90;;;;;;5077333;28;20027;-57
2022/08/23 01:10:23;;;;;;;3.95;1.80;;;17.40;99.90;;;;;;5109172;28;20043;-57
2022/08/23 01:12:57;;;;;;;3.00;2.38;;;17.40;99.90;;;;;;5087755;28;20051;-57
2022/08/23 01:15:34;;;;;;;4.20;1.83;;;17.40;99.90;;;;;;5072008;28;20119;-57
2022/08/23 01:18:06;;;;;;;6.20;2.38;;;17.40;99.90;;;;;;5090468;28;20398;-57
2022/08/23 01:20:42;;;;;;;4.00;1.75;;;17.40;99.90;;;;;;5092053;28;20623;-57
2022/08/23 01:23:21;;;;;;;;;;;17.40;99.90;;;;;;5086696;28;20035;-57
2022/08/23 01:25:46;;;;;;;3.47;1.80;;;17.40;99.90;;;;;;5091912;28;20363;-57
2022/08/23 01:28:12;;;;;;;3.30;2.00;;;17.40;99.90;;;;;;5109982;28;20040;-58
2022/08/23 01:30:42;;;;;;;2.40;2.13;;;17.40;99.90;;;;;;5112138;28;20463;-59
2022/08/23 01:33:08;;;;;;;3.58;2.10;;;17.30;99.90;;;;;;5098274;28;20035;-57
2022/08/23 01:35:43;;;;;;;3.55;1.92;;;17.40;99.90;;;;;;5091759;28;20252;-58
2022/08/23 01:38:10;;;;;;;4.03;2.30;;;17.30;99.90;;;;;;5090405;28;20118;-58
2022/08/23 01:40:36;;;;;;;4.05;2.25;;;17.40;99.90;;;;;;5091949;28;20094;-57
2022/08/23 01:43:02;;;;;;;5.22;2.35;;;17.30;99.90;;;;;;5109494;28;20037;-57
2022/08/23 01:45:29;;;;;;;4.03;2.13;;;17.40;99.90;;;;;;5092106;28;20059;-58
2022/08/23 01:47:55;;;;;;;4.15;2.28;;;17.40;99.90;;;;;;5109529;28;20032;-57
2022/08/23 01:50:20;;;;;;;2.85;2.10;;;17.30;99.90;;;;;;5091911;28;20399;-56
2022/08/23 01:52:46;;;;;;;4.22;2.10;;;17.40;99.90;;;;;;5109026;28;20023;-56
2022/08/23 01:55:11;;;;;;;3.05;2.05;;;17.40;99.90;;;;;;5111917;28;20023;-57
2022/08/23 01:57:40;;;;;;;3.67;2.40;;;17.30;99.90;;;;;;5095829;28;20081;-58
2022/08/23 02:00:06;;;;;;;5.18;2.60;;;17.30;99.90;;;;;;5111871;28;20090;-62
2022/08/23 02:02:32;;;;;;;3.63;2.22;;;17.30;99.90;;;;;;5093390;28;20552;-62
2022/08/23 02:04:57;;;;;;;4.20;2.25;;;17.30;99.90;;;;;;5111674;28;20091;-62
2022/08/23 02:07:27;;;;;;;5.63;2.80;;;17.30;99.90;;;;;;5093440;28;20047;-61
2022/08/23 02:09:53;;;;;;;4.50;2.38;;;17.30;99.90;;;;;;5111763;28;20028;-62
2022/08/23 02:12:19;;;;;;;3.42;2.50;;;17.20;99.90;;;;;;5092567;28;20634;-61
2022/08/23 02:14:44;;;;;;;2.63;2.33;;;17.20;99.90;;;;;;5111615;28;20077;-62
2022/08/23 02:17:10;;;;;;;5.47;2.45;;;17.30;99.90;;;;;;5089919;28;20036;-61
2022/08/23 02:19:37;;;;;;;6.18;2.35;;;17.30;99.90;;;;;;5111319;28;20024;-62
2022/08/23 02:22:05;;;;;;;4.72;2.55;;;17.20;99.90;;;;;;5089446;28;20031;-61
2022/08/23 02:24:31;;;;;;;2.78;2.53;;;17.20;99.90;;;;;;5104932;28;20036;-62
2022/08/23 02:27:01;;;;;;;2.75;2.30;;;17.30;99.90;;;;;;5091461;28;20040;-62
2022/08/23 02:29:30;;;;;;;3.80;2.58;;;17.30;99.90;;;;;;5090819;28;20471;-61
2022/08/23 02:31:57;;;;;;;6.45;2.92;;;17.20;99.90;;;;;;5111002;28;20110;-62
2022/08/23 02:34:24;;;;;;;5.60;3.00;;;17.30;99.90;;;;;;5108944;28;20047;-60
2022/08/23 02:36:49;;;;;;;5.22;3.00;;;17.20;99.90;;;;;;5090888;28;20456;-61
2022/08/23 02:39:16;;;;;;;5.45;3.25;;;17.20;99.90;;;;;;5108310;28;20027;-61
2022/08/23 02:41:42;;;;;;;7.00;3.25;;;17.20;99.90;;;;;;5110767;28;20038;-61
2022/08/23 02:44:09;;;;;;;5.07;3.00;;;17.20;99.90;;;;;;5089123;28;20492;-61
2022/08/23 02:46:34;;;;;;;4.43;2.83;;;17.20;99.90;;;;;;5110123;28;20027;-61
2022/08/23 02:49:00;;;;;;;3.75;2.70;;;17.20;99.90;;;;;;5089219;28;20032;-61
2022/08/23 02:51:26;;;;;;;5.07;2.85;;;17.20;99.90;;;;;;5110181;28;20024;-61
2022/08/23 02:53:51;;;;;;;2.90;2.30;;;17.20;99.90;;;;;;5088993;28;20035;-61
2022/08/23 02:56:17;;;;;;;2.83;2.10;;;17.30;99.90;;;;;;5109811;28;20185;-61
2022/08/23 02:58:44;;;;;;;3.08;2.28;;;17.20;99.90;;;;;;5088889;28;20111;-61
2022/08/23 03:01:17;;;;;;;2.97;2.20;;;17.30;99.90;;;;;;5110177;28;20059;-61
2022/08/23 03:03:44;;;;;;;4.13;1.95;;;17.30;99.90;;;;;;5088543;28;20043;-61
2022/08/23 03:06:10;;;;;;;7.60;2.67;;;17.30;99.90;;;;;;5109813;28;20027;-61
2022/08/23 03:08:36;;;;;;;4.45;2.17;;;17.30;99.90;;;;;;5088813;28;20085;-61
2022/08/23 03:11:01;;;;;;;3.53;2.28;;;17.30;99.90;;;;;;5109693;28;20023;-61
2022/08/23 03:13:27;;;;;;;2.28;2.08;;;17.30;99.90;;;;;;5099367;28;20024;-61
2022/08/23 03:15:53;;;;;;;3.08;2.20;;;17.30;99.90;;;;;;5090280;28;20036;-61
2022/08/23 03:18:19;;;;;;;4.50;2.65;;;17.30;99.90;;;;;;5107585;28;20518;-61
2022/08/23 03:20:45;;;;;;;4.70;2.60;;;17.30;99.90;;;;;;5090165;28;20067;-63
2022/08/23 03:23:11;;;;;;;3.38;2.10;;;17.30;99.90;;;;;;5101266;28;20031;-61
2022/08/23 03:25:37;;;;;;;4.03;2.50;;;17.30;99.90;;;;;;5090028;28;20102;-61
2022/08/23 03:28:06;;;;;;;5.28;2.60;;;17.30;99.90;;;;;;5107259;28;20495;-61
2022/08/23 03:30:32;;;;;;;3.47;2.30;;;17.30;99.90;;;;;;5110005;28;20038;-61
2022/08/23 03:32:59;;;;;;;2.30;2.10;;;17.30;99.90;;;;;;5094014;28;20036;-61
2022/08/23 03:35:24;;;;;;;4.75;2.50;;;17.30;99.90;;;;;;5109193;28;20556;-60
2022/08/23 03:37:52;;;;;;;4.95;2.50;;;17.30;99.90;;;;;;5093029;28;20035;-61
2022/08/23 03:40:18;;;;;;;4.15;2.60;;;17.30;99.90;;;;;;5109846;28;20031;-61
2022/08/23 03:42:43;;;;;;;4.25;2.75;;;17.30;99.90;;;;;;5091976;28;20023;-61
2022/08/23 03:45:09;;;;;;;3.42;2.33;;;17.20;99.90;;;;;;5109877;28;20035;-60
2022/08/23 03:47:35;;;;;;;4.18;2.53;;;17.20;99.90;;;;;;5090431;28;20399;-62
2022/08/23 03:50:00;;;;;;;7.82;2.72;;;17.20;99.90;;;;;;5108456;28;20016;-60
2022/08/23 03:52:26;;;;;;;3.90;2.92;;;17.20;99.90;;;;;;5089222;28;20028;-60
2022/08/23 03:54:51;;;;;;;5.40;2.58;;;17.20;99.90;;;;;;5108490;28;20106;-61
2022/08/23 03:57:17;;;;;;;4.05;2.28;;;17.30;99.90;;;;;;5089742;28;20226;-61
2022/08/23 03:59:42;;;;;;;5.25;2.47;;;17.30;99.90;;;;;;5107555;28;20119;-60
2022/08/23 04:02:08;;;;;;;2.65;2.45;;;17.20;99.90;;;;;;5087726;28;20032;-61
2022/08/23 04:04:34;;;;;;;5.03;2.90;;;17.20;99.90;;;;;;5087692;28;20020;-62
2022/08/23 04:06:59;;;;;;;5.40;2.70;;;17.30;99.90;;;;;;5109183;28;20464;-62
2022/08/23 04:09:25;;;;;;;3.42;2.80;;;17.30;99.90;;;;;;5088383;28;20028;-62
2022/08/23 04:11:52;;;;;;;5.82;2.92;;;17.20;99.90;;;;;;5109105;28;20107;-62
2022/08/23 04:14:18;;;;;;;5.78;2.88;;;17.20;99.90;;;;;;5086772;28;20027;-62
2022/08/23 04:16:43;;;;;;;5.07;3.35;;;17.20;99.90;;;;;;5109092;28;20047;-61
2022/08/23 04:19:12;;;;;;;7.07;3.63;;;17.30;99.90;;;;;;5088270;28;20384;-61
2022/08/23 04:21:40;;;;;;;4.57;2.80;;;17.20;99.90;;;;;;5109451;28;20107;-63
2022/08/23 04:24:05;;;;;;;7.20;3.22;;;17.20;99.90;;;;;;5081358;28;20036;-61
2022/08/23 04:26:32;;;;;;;7.05;3.10;;;17.20;99.90;;;;;;5108750;28;20097;-62
2022/08/23 04:28:58;;;;;;;6.85;3.85;;;17.20;99.90;;;;;;5088036;28;20668;-61
2022/08/23 04:31:25;;;;;;;3.75;2.85;;;17.20;99.90;;;;;;5108933;28;20043;-60
2022/08/23 04:33:51;;;;;;;5.32;3.28;;;17.20;99.90;;;;;;5087707;28;20504;-53
2022/08/23 04:36:17;;;;;;;4.95;3.08;;;17.20;99.90;;;;;;5108965;28;20039;-55
2022/08/23 04:38:42;;;;;;;5.43;3.35;;;17.20;99.90;;;;;;5098132;28;20040;-53
2022/08/23 04:43:53;;;;;;;5.45;3.15;;;17.20;99.90;;;;;;5090523;28;20050;-55
2022/08/23 04:46:18;;;;;;;3.17;2.63;;;17.20;99.90;;;;;;5092469;28;20024;-56
2022/08/23 04:48:45;;;;;;;5.60;3.20;;;17.30;99.90;;;;;;5110707;28;20176;-53
2022/08/23 04:51:11;;;;;;;3.85;2.90;;;17.30;99.90;;;;;;5093435;28;20502;-55
2022/08/23 04:53:38;;;;;;;4.30;3.45;;;17.30;99.90;;;;;;5110696;28;20080;-56
2022/08/23 04:56:04;;;;;;;5.68;3.10;;;17.40;99.90;;;;;;5093133;28;20039;-55
2022/08/23 04:58:31;;;;;;;4.43;3.13;;;17.40;99.90;;;;;;5110559;28;20035;-54
2022/08/23 05:00:58;;;;;;;5.68;2.85;;;17.40;99.90;;;;;;5093113;27;20066;-53
2022/08/23 05:03:25;;;;;;;4.25;3.15;;;17.40;99.90;;;;;;5110794;28;20689;-54
2022/08/23 05:05:52;;;;;;;4.93;3.13;;;17.40;99.90;;;;;;5112936;28;20028;-56
2022/08/23 05:08:18;;;;;;;7.97;3.72;;;17.50;99.90;;;;;;5096491;28;20040;-55
2022/08/23 05:10:44;;;;;;;6.10;3.28;;;17.50;99.90;;;;;;5112527;28;20058;-55
2022/08/23 05:13:09;;;;;;;5.45;3.50;;;17.50;99.90;;;;;;5096045;28;20401;-54
2022/08/23 05:15:35;;;;;;;5.75;3.47;;;17.50;99.90;;;;;;5112343;28;20042;-54
2022/08/23 05:18:00;;;;;;;6.50;3.45;;;17.50;99.90;;;;;;5094309;28;20051;-56
2022/08/23 05:20:26;;;;;;;6.57;3.80;;;17.60;99.90;;;;;;5112555;28;20035;-54
2022/08/23 05:22:53;;;;;;;6.00;3.70;;;17.60;99.90;;;;;;5089773;28;20031;-54
2022/08/23 05:25:19;;;;;;;8.15;3.67;;;17.70;99.90;;;;;;5112423;28;20138;-56
2022/08/23 05:27:44;;;;;;;5.47;3.28;;;17.60;99.90;;;;;;5110590;28;20534;-55
2022/08/23 05:30:10;;;;;;;7.30;2.97;;;17.70;99.90;;;;;;5112832;28;20094;-56
2022/08/23 05:32:37;;;;;;;5.85;2.97;;;17.70;99.90;;;;;;5092213;28;20052;-55
2022/08/23 05:35:03;;;;;;;6.50;3.45;;;17.80;99.90;;;;;;5108444;28;20116;-55
2022/08/23 05:37:28;;;;;;;5.80;3.30;;;17.80;99.90;;;;;;5099781;28;20551;-55
2022/08/23 05:39:54;;;;;;;4.70;3.53;;;17.90;99.90;;;;;;5087982;28;20115;-55
2022/08/23 05:42:19;;;;;;;6.10;3.65;;;18.00;99.90;;;;;;5105220;28;20066;-53
2022/08/23 05:44:45;;;;;;;6.43;3.33;;;18.00;99.90;;;;;;5088675;28;20107;-57
2022/08/23 05:47:13;;;;;;;6.40;3.38;;;18.20;99.90;;;;;;5092849;28;20395;-57
2022/08/23 05:49:39;;;;;;;5.13;3.35;;;18.30;99.90;;;;;;5087945;28;20024;-56
2022/08/23 05:52:11;;;;;;;6.50;3.55;;;18.40;99.90;;;;;;5110199;28;20028;-55
2022/08/23 05:54:36;;;;;;;5.85;2.72;;;18.40;99.90;;;;;;5087218;28;20043;-53
2022/08/23 05:57:02;;;;;;;7.60;3.17;;;18.60;99.90;;;;;;5109266;28;20015;-56
2022/08/23 05:59:28;;;;;;;3.45;2.65;;;18.70;99.90;;;;;;5089132;28;20024;-57
2022/08/23 06:01:55;;;;;;;3.53;2.88;;;18.80;99.90;;;;;;5109965;28;20479;-55
2022/08/23 06:04:20;;;;;;;5.82;2.97;;;18.90;99.90;;;;;;5088570;28;20492;-58
2022/08/23 06:06:47;;;;;;;5.22;2.88;;;18.90;99.90;;;;;;5109971;28;20039;-57
2022/08/23 06:09:15;;;;;;;5.82;2.80;;;19.00;99.90;;;;;;5088945;28;20024;-57
2022/08/23 06:11:43;;;;;;;2.92;2.00;;;19.20;99.90;;;;;;5110320;28;20084;-57
2022/08/23 06:14:09;;;;;;;3.97;2.35;;;19.40;99.90;;;;;;5100028;28;20538;-57
2022/08/23 06:16:37;;;;;;;5.90;2.35;;;19.50;99.90;;;;;;5090550;28;20036;-57
2022/08/23 06:19:04;;;;;;;4.15;2.03;;;19.70;99.70;;;;;;5098582;28;20445;-56
2022/08/23 06:21:31;;;;;;;4.05;2.53;;;19.90;99.70;;;;;;5110908;28;20035;-56
2022/08/23 06:23:57;;;;;;;6.95;2.65;;;20.00;98.00;;;;;;5099140;28;20107;-57
2022/08/23 06:26:24;;;;;;;4.38;2.45;;;20.00;97.20;;;;;;5104109;28;20111;-57
2022/08/23 06:28:53;;;;;;;3.28;2.33;;;20.10;96.90;;;;;;5096558;28;20065;-57
2022/08/23 06:31:44;;;;;;;3.75;2.65;;;20.20;96.20;;;;;;5090572;28;20230;-57
2022/08/23 06:34:12;;;;;;;5.78;2.55;;;20.30;94.30;;;;;;5089200;28;20456;-57
2022/08/23 06:36:37;;;;;;;4.28;2.20;;;20.40;94.00;;;;;;5070070;28;20442;-56
2022/08/23 06:39:07;;;;;;;3.40;2.55;;;20.50;94.00;;;;;;5107429;28;20040;-57
2022/08/23 06:41:33;;;;;;;3.45;2.20;;;20.60;93.80;;;;;;5090560;28;20107;-57
2022/08/23 06:43:59;;;;;;;3.97;1.90;;;20.80;93.20;;;;;;5108079;28;20031;-56
2022/08/23 06:46:27;;;;;;;6.82;2.25;;;20.90;93.00;;;;;;5090713;28;20490;-54
2022/08/23 06:48:53;;;;;;;3.10;1.98;;;20.90;91.80;;;;;;5108307;28;20049;-57
2022/08/23 06:51:24;;;;;;;5.25;1.90;;;20.90;91.00;;;;;;5090594;28;20024;-56
2022/08/23 06:53:54;;;;;;;5.03;2.40;;;20.80;90.70;;;;;;5108076;28;20448;-56
2022/08/23 06:56:24;;;;;;;3.53;2.20;;;20.90;91.50;;;;;;5090434;28;20043;-55
2022/08/23 06:58:51;;;;;;;4.20;2.08;;;20.90;91.90;;;;;;5083403;28;20043;-57
2022/08/23 07:01:33;;;;;;;3.03;1.98;;;20.90;91.50;;;;;;5110164;28;20024;-55
2022/08/23 07:04:00;;;;;;;3.75;1.73;;;20.90;91.60;;;;;;5085116;28;20036;-52
2022/08/23 07:06:27;;;;;;;3.10;1.83;;;20.80;91.70;;;;;;5090032;28;20043;-54
2022/08/23 07:08:53;;;;;;;3.00;1.88;;;20.80;91.80;;;;;;5107637;28;20479;-54
2022/08/23 07:11:20;;;;;;;4.93;2.13;;;20.80;91.40;;;;;;5090210;28;20036;-56
2022/08/23 07:13:47;;;;;;;6.47;2.40;;;20.70;92.00;;;;;;5107529;28;20491;-54
2022/08/23 07:16:14;;;;;;;3.75;2.00;;;20.70;92.00;;;;;;5110282;28;20046;-57
2022/08/23 07:18:40;;;;;;;3.35;2.03;;;20.70;92.20;;;;;;5093640;28;20023;-54
2022/08/23 07:21:06;;;;;;;3.03;1.98;;;20.70;92.00;;;;;;5109974;28;20023;-56
2022/08/23 07:23:33;;;;;;;3.15;1.75;;;20.70;91.90;;;;;;5092311;28;20537;-53
2022/08/23 07:26:07;;;;;;;2.70;2.08;;;20.60;91.80;;;;;;5109920;28;20035;-55
2022/08/23 07:28:32;;;;;;;4.82;2.30;;;20.60;90.30;;;;;;5069694;28;20032;-55
2022/08/23 07:31:15;;;;;;;7.57;2.53;;;20.60;92.00;;;;;;5110168;28;20356;-56
2022/08/23 07:33:41;;;;;;;3.85;2.17;;;20.60;91.90;;;;;;5080285;28;20065;-56
2022/08/23 07:36:08;;;;;;;5.00;2.15;;;20.70;92.00;;;;;;5109669;28;20392;-60
2022/08/23 07:38:34;;;;;;;4.22;1.80;;;20.70;91.60;;;;;;5107402;28;20479;-59
2022/08/23 07:41:03;;;;;;;4.35;2.28;;;20.80;91.30;;;;;;5109693;28;20070;-60
2022/08/23 07:43:31;;;;;;;5.78;2.38;;;20.80;91.50;;;;;;5091095;28;20552;-60
2022/08/23 07:45:57;;;;;;;3.53;2.05;;;20.90;89.70;;;;;;5110112;28;20080;-60
2022/08/23 07:48:23;;;;;;;2.83;1.70;;;21.00;90.60;;;;;;5090304;28;20505;-59
2022/08/23 07:50:57;;;;;;;3.22;1.95;;;21.10;90.80;;;;;;5109620;28;20051;-60
2022/08/23 07:53:24;;;;;;;4.15;1.92;;;21.20;90.00;;;;;;5089696;28;20024;-57
2022/08/23 07:55:50;;;;;;;2.80;1.80;;;21.30;88.60;;;;;;5109636;28;20042;-60
2022/08/23 07:58:16;;;;;;;3.15;2.20;;;21.40;89.00;;;;;;5088734;28;20020;-59
2022/08/23 08:00:42;;;;;;;2.50;1.73;;;21.50;88.20;;;;;;5109591;28;20502;-55
2022/08/23 08:03:09;;;;;;;4.75;1.90;;;21.70;87.90;;;;;;5089646;28;20077;-61
2022/08/23 08:05:35;;;;;;;3.85;1.95;;;21.80;87.30;;;;;;5089246;28;20293;-56
2022/08/23 08:08:01;;;;;;;4.13;2.00;;;22.00;83.70;;;;;;5108865;28;20024;-56
2022/08/23 08:10:27;;;;;;;5.18;1.60;;;22.20;83.60;;;;;;5087609;28;20105;-57
2022/08/23 08:12:53;;;;;;;4.65;2.25;;;22.30;81.50;;;;;;5108821;28;20032;-56
2022/08/23 08:15:19;;;;;;;2.60;1.80;;;22.40;73.80;;;;;;5087730;28;20103;-57
2022/08/23 08:17:49;;;;;;;3.53;1.77;;;22.40;71.50;;;;;;5108513;28;20042;-58
2022/08/23 08:20:14;;;;;;;2.92;1.80;;;22.20;73.80;;;;;;5088621;28;20503;-57
2022/08/23 08:22:40;;;;;;;2.30;1.77;;;22.20;76.60;;;;;;5112862;28;20053;-57
2022/08/23 08:25:07;;;;;;;4.90;1.90;;;22.30;77.40;;;;;;5091648;28;20095;-57
2022/08/23 08:27:33;;;;;;;2.83;1.70;;;22.30;74.70;;;;;;5109177;28;20024;-56
2022/08/23 08:29:58;;;;;;;3.58;1.80;;;22.30;76.40;;;;;;5091710;28;20024;-56
2022/08/23 08:32:24;;;;;;;3.40;2.03;;;22.40;77.00;;;;;;5112617;28;20032;-58
2022/08/23 08:34:49;;;;;;;2.58;1.80;;;22.40;75.70;;;;;;5091683;28;20047;-57
2022/08/23 08:37:15;;;;;;;2.90;1.63;;;22.50;74.50;;;;;;5112354;28;20404;-54
2022/08/23 08:39:44;;;;;;;3.85;2.08;;;22.60;72.60;;;;;;5091516;28;20051;-57
2022/08/23 08:42:30;;;;;;;3.08;1.70;;;22.60;69.40;;;;;;5113142;28;20063;-57
2022/08/23 08:45:23;;;;;;;3.08;1.60;;;22.70;61.90;;;;;;5098360;28;20386;-57
2022/08/23 08:47:58;;;;;;;2.58;1.77;;;22.70;61.60;;;;;;5069376;28;20047;-57
2022/08/23 08:50:36;;;;;;;4.18;1.50;;;22.60;59.10;;;;;;5105930;28;20023;-57
2022/08/23 08:53:32;;;;;;;2.58;1.77;;;22.60;65.40;;;;;;5072636;28;20025;-57
2022/08/23 08:56:20;;;;;;;2.92;1.85;;;22.70;61.80;;;;;;5072444;28;20040;-57
2022/08/23 08:58:52;;;;;;;2.78;1.33;;;22.70;61.30;;;;;;5073301;28;20104;-55
2022/08/23 09:01:20;;;;;;;3.95;1.77;;;22.60;60.60;;;;;;5112748;28;20023;-56
2022/08/23 09:03:47;;;;;;;1.50;1.30;;;22.60;64.00;;;;;;5093841;28;20510;-58
2022/08/23 09:06:33;;;;;;;3.38;1.52;;;22.70;62.80;;;;;;5112797;28;20031;-56
2022/08/23 09:09:23;;;;;;;1.77;1.10;;;22.80;63.30;;;;;;5080233;28;20064;-57
2022/08/23 09:12:13;;;;;;;5.35;2.15;;;22.90;61.40;;;;;;5113082;28;20709;-57
2022/08/23 09:15:28;;;;;;;3.35;1.92;;;22.90;59.00;;;;;;5091055;28;20115;-55
2022/08/23 09:18:06;;;;;;;2.60;1.55;;;23.00;59.70;;;;;;5071928;28;20028;-57
2022/08/23 09:20:32;;;;;;;4.28;1.85;;;23.00;57.80;;;;;;5105567;28;20039;-58
2022/08/23 09:23:16;;;;;;;2.72;1.70;;;23.00;60.30;;;;;;5110930;28;20115;-58
2022/08/23 09:25:59;;;;;;;4.18;1.67;;;23.20;59.50;;;;;;5108346;28;20044;-56
2022/08/23 09:28:26;;;;;;;1.38;1.20;;;23.30;56.50;;;;;;5065724;28;20383;-58
2022/08/23 09:30:55;;;;;;;6.85;2.08;;;23.50;60.70;;;;;;5071620;28;20038;-58
2022/08/23 09:33:24;;;;;;;2.58;1.90;;;23.50;59.90;;;;;;5106502;28;20034;-57
2022/08/23 09:36:21;;;;;;;3.72;1.90;;;23.70;57.80;;;;;;5090045;28;20043;-57
2022/08/23 09:38:56;;;;;;;3.72;2.10;;;23.60;58.10;;;;;;5109757;28;20028;-55
2022/08/23 09:41:37;;;;;;;6.00;2.20;;;23.80;58.10;;;;;;5112003;28;20360;-57
2022/08/23 09:44:12;;;;;;;6.07;2.40;;;23.80;58.30;;;;;;5078537;28;20259;-56
2022/08/23 09:46:41;;;;;;;3.27;2.37;;;23.90;59.00;;;;;;5111863;28;20019;-54
2022/08/23 09:49:26;;;;;;;4.80;2.40;;;23.90;55.50;;;;;;5094462;28;20757;-55
2022/08/23 09:51:54;;;;;;;2.70;1.98;;;23.90;54.70;;;;;;5111800;28;20031;-56
2022/08/23 09:54:33;;;;;;;5.18;2.40;;;24.00;57.90;;;;;;5096229;28;20251;-55
2022/08/23 09:57:08;;;;;;;3.13;2.15;;;24.00;54.70;;;;;;5089938;28;20499;-54
2022/08/23 09:59:42;;;;;;;3.63;2.00;;;24.10;56.50;;;;;;5085987;28;20169;-58
2022/08/23 10:02:23;;;;;;;2.30;2.10;;;24.30;55.90;;;;;;5071132;28;20259;-56
2022/08/23 10:05:02;;;;;;;5.47;2.58;;;24.40;53.20;;;;;;5089907;28;20285;-55
2022/08/23 10:07:38;;;;;;;3.83;2.00;;;24.40;53.20;;;;;;5071053;28;20037;-56
2022/08/23 10:10:14;;;;;;;3.00;1.88;;;24.40;51.80;;;;;;5109548;28;20502;-57
2022/08/23 10:12:40;;;;;;;4.38;2.30;;;24.40;50.30;;;;;;5091536;28;20584;-58
2022/08/23 10:15:08;;;;;;;2.72;2.15;;;24.30;52.20;;;;;;5108761;28;20028;-57
2022/08/23 10:17:54;;;;;;;2.92;2.28;;;24.20;52.80;;;;;;5111045;28;20047;-58
2022/08/23 10:20:35;;;;;;;5.75;2.20;;;24.20;52.00;;;;;;5097834;28;20414;-57
2022/08/23 10:23:15;;;;;;;5.40;2.47;;;24.20;50.80;;;;;;5109957;28;20035;-57
2022/08/23 10:25:47;;;;;;;5.25;2.35;;;24.40;52.80;;;;;;5103509;28;20055;-58
2022/08/23 10:31:21;;;;;;;3.80;2.50;;;24.40;49.50;;;;;;5070620;28;20038;-54
2022/08/23 10:34:14;;;;;;;4.80;2.28;;;24.30;48.70;;;;;;5099423;28;20043;-56
2022/08/23 10:37:24;;;;;;;3.92;2.28;;;24.50;50.70;;;;;;5090653;28;20357;-56
2022/08/23 10:40:20;;;;;;;3.70;2.03;;;24.80;48.90;;;;;;5087562;28;20048;-56
2022/08/23 10:42:58;;;;;;;4.00;2.40;;;25.00;47.00;;;;;;5069889;28;20029;-56
2022/08/23 10:45:25;;;;;;;5.35;2.55;;;25.20;48.20;;;;;;5096859;28;20027;-56
2022/08/23 10:48:20;;;;;;;4.25;2.40;;;25.30;44.60;;;;;;5110750;28;20039;-54
2022/08/23 10:50:53;;;;;;;2.75;2.28;;;25.30;41.00;;;;;;5102718;28;20047;-53
2022/08/23 10:53:20;;;;;;;4.18;2.05;;;25.20;41.10;;;;;;5110469;28;20066;-55
2022/08/23 10:56:01;;;;;;;2.88;2.25;;;25.20;42.40;;;;;;5088793;28;20104;-55
2022/08/23 10:58:40;;;;;;;2.90;2.10;;;25.20;42.40;;;;;;5070086;28;20533;-56
2022/08/23 11:01:07;;;;;;;3.13;2.20;;;25.30;44.20;;;;;;5107563;28;20024;-56
2022/08/23 11:03:42;;;;;;;3.33;2.10;;;25.30;41.60;;;;;;5110145;28;20235;-58
2022/08/23 11:06:39;;;;;;;2.95;2.55;;;25.30;40.90;;;;;;5107766;28;20039;-58
2022/08/23 11:09:20;;;;;;;5.13;2.30;;;25.20;40.80;;;;;;5072792;28;20527;-58
2022/08/23 11:11:48;;;;;;;5.10;2.10;;;25.00;37.80;;;;;;5110324;28;20020;-57
2022/08/23 11:14:51;;;;;;;4.50;2.40;;;25.00;39.90;;;;;;5091744;28;20028;-57
2022/08/23 11:17:27;;;;;;;3.90;2.40;;;25.00;39.50;;;;;;5090322;28;20089;-58
2022/08/23 11:19:55;;;;;;;6.60;2.13;;;25.00;40.10;;;;;;5085851;28;20035;-54
2022/08/23 11:22:26;;;;;;;3.97;2.50;;;25.00;41.20;;;;;;5089941;28;20047;-57
2022/08/23 11:24:53;;;;;;;3.83;2.60;;;25.00;40.80;;;;;;5107764;28;20054;-57
2022/08/23 11:27:29;;;;;;;5.95;2.80;;;25.10;38.10;;;;;;5094070;28;20041;-56
2022/08/23 11:29:55;;;;;;;3.10;2.33;;;25.10;38.10;;;;;;5097141;28;20051;-56
2022/08/23 11:32:32;;;;;;;5.22;2.33;;;25.00;39.70;;;;;;5090258;28;20040;-55
2022/08/23 11:35:07;;;;;;;4.13;2.30;;;25.20;37.60;;;;;;5085715;28;20039;-55
2022/08/23 11:37:55;;;;;;;;;;;25.10;38.70;;;;;;5069711;28;20318;-57
2022/08/23 11:40:50;;;;;;;4.15;2.40;;;25.20;37.20;;;;;;5107536;28;19990;-56
2022/08/23 11:43:30;;;;;;;2.88;2.25;;;25.00;37.10;;;;;;5069261;28;20024;-56
2022/08/23 11:46:22;;;;;;;2.83;1.98;;;25.20;38.10;;;;;;5101658;28;20032;-57
2022/08/23 11:49:18;;;;;;;4.18;1.73;;;25.20;36.70;;;;;;5069066;28;20025;-57
2022/08/23 11:51:51;;;;;;;1.67;1.48;;;25.10;36.30;;;;;;5069171;28;20032;-56
2022/08/23 11:54:31;;;;;;;3.88;2.00;;;25.20;35.50;;;;;;5072492;28;20050;-55
2022/08/23 11:57:29;;;;;;;7.35;2.20;;;25.30;36.00;;;;;;5109815;28;20176;-55
2022/08/23 12:00:10;;;;;;;3.47;1.85;;;25.40;37.50;;;;;;5081870;28;20039;-55
2022/08/23 12:03:15;;;;;;;3.17;2.03;;;25.50;37.50;;;;;;5069010;28;20555;-53
2022/08/23 12:06:01;;;;;;;6.30;2.20;;;25.30;34.70;;;;;;5096095;28;20552;-54
2022/08/23 12:09:09;;;;;;;3.95;2.13;;;25.30;36.50;;;;;;5069000;28;20031;-52
2022/08/23 12:12:08;;;;;;;2.35;1.88;;;25.40;37.10;;;;;;5046128;28;20048;-52
2022/08/23 12:14:39;;;;;;;3.45;2.45;;;25.50;36.50;;;;;;5076347;28;20106;-48
2022/08/23 12:17:25;;;;;;;4.80;2.10;;;25.30;37.60;;;;;;5109415;28;20107;-48
2022/08/23 12:19:53;;;;;;;4.20;2.22;;;25.20;38.10;;;;;;5080626;28;20022;-53
2022/08/23 12:22:26;;;;;;;3.80;2.35;;;25.10;38.20;;;;;;5109364;28;20016;-53
2022/08/23 12:24:58;;;;;;;2.88;1.88;;;25.10;38.70;;;;;;5080763;28;20040;-54
2022/08/23 12:27:32;;;;;;;3.63;2.25;;;25.10;38.60;;;;;;5094350;28;20020;-53
2022/08/23 12:30:04;;;;;;;3.35;2.00;;;25.10;38.60;;;;;;5082241;28;20028;-49
2022/08/23 12:32:58;;;;;;;3.60;2.05;;;25.10;38.60;;;;;;5088855;28;20564;-55
2022/08/23 12:35:40;;;;;;;3.15;1.90;;;25.10;39.30;;;;;;5089310;28;20049;-51
2022/08/23 12:38:33;;;;;;;6.18;2.17;;;25.10;38.30;;;;;;5068584;28;20098;-52
2022/08/23 12:41:15;;;;;;;6.88;2.10;;;25.00;39.00;;;;;;5094633;28;20493;-53
2022/08/23 12:44:18;;;;;;;2.50;1.98;;;25.00;38.80;;;;;;5068742;28;20396;-49
2022/08/23 12:46:46;;;;;;;4.47;2.30;;;25.00;38.40;;;;;;5067329;28;20041;-54
2022/08/23 12:49:33;;;;;;;3.50;2.03;;;25.10;38.40;;;;;;5106760;28;20019;-50
2022/08/23 12:52:05;;;;;;;5.32;2.33;;;25.10;38.20;;;;;;5109062;28;20055;-52
2022/08/23 12:54:42;;;;;;;4.30;2.00;;;25.00;38.70;;;;;;5072758;28;20043;-50
2022/08/23 12:57:14;;;;;;;2.92;1.83;;;25.00;39.10;;;;;;5109105;28;20023;-55
2022/08/23 12:59:45;;;;;;;2.40;1.70;;;24.90;39.30;;;;;;5074027;28;20137;-54
2022/08/23 13:02:25;;;;;;;3.95;1.98;;;24.80;38.80;;;;;;5109021;28;20506;-54
2022/08/23 13:04:57;;;;;;;2.67;1.73;;;24.90;38.90;;;;;;5077912;28;20020;-50
2022/08/23 13:07:25;;;;;;;3.20;1.75;;;24.80;38.90;;;;;;5111627;28;20463;-52
2022/08/23 13:09:51;;;;;;;4.88;2.22;;;24.80;39.00;;;;;;5093914;28;20036;-54
2022/08/23 13:12:17;;;;;;;4.50;2.53;;;24.70;39.40;;;;;;5112670;28;20442;-51
2022/08/23 13:14:45;;;;;;;3.05;2.28;;;24.60;39.60;;;;;;5094992;28;20050;-53
2022/08/23 13:17:23;;;;;;;3.92;2.10;;;24.60;39.80;;;;;;5112438;28;20476;-48
2022/08/23 13:19:51;;;;;;;4.32;2.58;;;24.80;39.90;;;;;;5080055;28;20471;-51